sensor_id;sensor_type;location;lat;lon;timestamp;P1;durP1;ratioP1;P2;durP2;ratioP2
45011;SDS011;63444;48.148;11.542;2023-04-25T00:00:45;1.80;;;1.70;;
45011;SDS011;63444;48.148;11.542;2023-04-25T00:03:10;2.10;;;1.70;;
45011;SDS011;63444;48.148;11.542;2023-04-25T00:05:36;2.60;;;1.60;;
45011;SDS011;63444;48.148;11.542;2023-04-25T00:08:02;4.23;;;1.83;;
45011;SDS011;63444;48.148;11.542;2023-04-25T00:10:28;2.93;;;1.93;;
45011;SDS011;63444;48.148;11.542;2023-04-25T00:12:54;2.23;;;1.90;;
45011;SDS011;63444;48.148;11.542;2023-04-25T00:15:20;4.23;;;1.90;;
45011;SDS011;63444;48.148;11.542;2023-04-25T00:17:45;1.97;;;1.70;;
45011;SDS011;63444;48.148;11.542;2023-04-25T00:20:12;2.10;;;1.90;;
45011;SDS011;63444;48.148;11.542;2023-04-25T00:22:37;3.53;;;1.80;;
45011;SDS011;63444;48.148;11.542;2023-04-25T00:25:06;2.67;;;1.87;;
45011;SDS011;63444;48.148;11.542;2023-04-25T00:27:32;2.40;;;1.87;;
45011;SDS011;63444;48.148;11.542;2023-04-25T00:29:58;2.00;;;1.80;;
45011;SDS011;63444;48.148;11.542;2023-04-25T00:32:24;3.87;;;2.00;;
45011;SDS011;63444;48.148;11.542;2023-04-25T00:34:50;3.27;;;1.73;;
45011;SDS011;63444;48.148;11.542;2023-04-25T00:37:15;3.33;;;1.90;;
45011;SDS011;63444;48.148;11.542;2023-04-25T00:39:41;2.30;;;1.90;;
45011;SDS011;63444;48.148;11.542;2023-04-25T00:42:07;3.07;;;1.80;;
45011;SDS011;63444;48.148;11.542;2023-04-25T00:44:33;1.90;;;1.70;;
45011;SDS011;63444;48.148;11.542;2023-04-25T00:47:01;3.43;;;1.57;;
45011;SDS011;63444;48.148;11.542;2023-04-25T00:49:28;2.20;;;1.83;;
45011;SDS011;63444;48.148;11.542;2023-04-25T00:51:54;2.27;;;1.73;;
45011;SDS011;63444;48.148;11.542;2023-04-25T00:54:19;3.07;;;1.83;;
45011;SDS011;63444;48.148;11.542;2023-04-25T00:56:45;2.00;;;1.80;;
45011;SDS011;63444;48.148;11.542;2023-04-25T00:59:11;1.83;;;1.70;;
45011;SDS011;63444;48.148;11.542;2023-04-25T01:01:38;2.10;;;1.70;;
45011;SDS011;63444;48.148;11.542;2023-04-25T01:04:04;2.13;;;1.73;;
45011;SDS011;63444;48.148;11.542;2023-04-25T01:06:29;4.03;;;2.10;;
45011;SDS011;63444;48.148;11.542;2023-04-25T01:08:56;2.80;;;2.00;;
45011;SDS011;63444;48.148;11.542;2023-04-25T01:11:23;2.63;;;1.90;;
45011;SDS011;63444;48.148;11.542;2023-04-25T01:13:49;3.20;;;1.80;;
45011;SDS011;63444;48.148;11.542;2023-04-25T01:16:15;2.30;;;2.10;;
45011;SDS011;63444;48.148;11.542;2023-04-25T01:18:40;3.27;;;2.10;;
45011;SDS011;63444;48.148;11.542;2023-04-25T01:21:11;2.33;;;2.00;;
45011;SDS011;63444;48.148;11.542;2023-04-25T01:23:38;2.10;;;1.63;;
45011;SDS011;63444;48.148;11.542;2023-04-25T01:26:09;2.20;;;1.70;;
45011;SDS011;63444;48.148;11.542;2023-04-25T01:28:36;2.80;;;2.07;;
45011;SDS011;63444;48.148;11.542;2023-04-25T01:31:02;1.87;;;1.70;;
45011;SDS011;63444;48.148;11.542;2023-04-25T01:33:28;2.50;;;2.07;;
45011;SDS011;63444;48.148;11.542;2023-04-25T01:35:54;2.80;;;1.90;;
45011;SDS011;63444;48.148;11.542;2023-04-25T01:38:20;2.40;;;1.80;;
45011;SDS011;63444;48.148;11.542;2023-04-25T01:40:46;1.77;;;1.60;;
45011;SDS011;63444;48.148;11.542;2023-04-25T01:43:12;2.27;;;1.63;;
45011;SDS011;63444;48.148;11.542;2023-04-25T01:45:39;2.70;;;1.90;;
45011;SDS011;63444;48.148;11.542;2023-04-25T01:48:06;2.93;;;1.70;;
45011;SDS011;63444;48.148;11.542;2023-04-25T01:50:32;2.20;;;1.97;;
45011;SDS011;63444;48.148;11.542;2023-04-25T01:52:58;2.63;;;1.90;;
45011;SDS011;63444;48.148;11.542;2023-04-25T01:55:24;1.93;;;1.83;;
45011;SDS011;63444;48.148;11.542;2023-04-25T01:57:51;2.10;;;1.90;;
45011;SDS011;63444;48.148;11.542;2023-04-25T02:00:16;2.53;;;1.80;;
45011;SDS011;63444;48.148;11.542;2023-04-25T02:02:42;3.73;;;2.03;;
45011;SDS011;63444;48.148;11.542;2023-04-25T02:05:08;3.90;;;2.03;;
45011;SDS011;63444;48.148;11.542;2023-04-25T02:07:33;2.13;;;1.93;;
45011;SDS011;63444;48.148;11.542;2023-04-25T02:09:59;2.03;;;1.60;;
45011;SDS011;63444;48.148;11.542;2023-04-25T02:12:25;3.10;;;1.90;;
45011;SDS011;63444;48.148;11.542;2023-04-25T02:14:52;2.60;;;1.97;;
45011;SDS011;63444;48.148;11.542;2023-04-25T02:17:17;2.50;;;1.80;;
45011;SDS011;63444;48.148;11.542;2023-04-25T02:19:43;2.80;;;1.97;;
45011;SDS011;63444;48.148;11.542;2023-04-25T02:22:09;2.37;;;1.90;;
45011;SDS011;63444;48.148;11.542;2023-04-25T02:24:35;2.60;;;1.80;;
45011;SDS011;63444;48.148;11.542;2023-04-25T02:27:01;3.00;;;2.10;;
45011;SDS011;63444;48.148;11.542;2023-04-25T02:29:27;2.07;;;1.70;;
45011;SDS011;63444;48.148;11.542;2023-04-25T02:31:52;3.40;;;1.97;;
45011;SDS011;63444;48.148;11.542;2023-04-25T02:34:18;3.40;;;1.97;;
45011;SDS011;63444;48.148;11.542;2023-04-25T02:36:43;2.87;;;1.93;;
45011;SDS011;63444;48.148;11.542;2023-04-25T02:39:09;2.33;;;1.80;;
45011;SDS011;63444;48.148;11.542;2023-04-25T02:41:35;2.47;;;1.90;;
45011;SDS011;63444;48.148;11.542;2023-04-25T02:44:01;2.23;;;1.90;;
45011;SDS011;63444;48.148;11.542;2023-04-25T02:46:26;3.10;;;2.20;;
45011;SDS011;63444;48.148;11.542;2023-04-25T02:48:52;4.37;;;2.00;;
45011;SDS011;63444;48.148;11.542;2023-04-25T02:51:17;3.53;;;1.90;;
45011;SDS011;63444;48.148;11.542;2023-04-25T02:53:43;3.37;;;1.97;;
45011;SDS011;63444;48.148;11.542;2023-04-25T02:56:09;2.30;;;1.80;;
45011;SDS011;63444;48.148;11.542;2023-04-25T02:58:34;4.13;;;2.10;;
45011;SDS011;63444;48.148;11.542;2023-04-25T03:01:00;3.57;;;2.10;;
45011;SDS011;63444;48.148;11.542;2023-04-25T03:03:26;2.70;;;2.10;;
45011;SDS011;63444;48.148;11.542;2023-04-25T03:05:52;1.90;;;1.80;;
45011;SDS011;63444;48.148;11.542;2023-04-25T03:08:17;4.37;;;2.20;;
45011;SDS011;63444;48.148;11.542;2023-04-25T03:10:44;3.07;;;1.93;;
45011;SDS011;63444;48.148;11.542;2023-04-25T03:13:10;2.60;;;2.10;;
45011;SDS011;63444;48.148;11.542;2023-04-25T03:15:35;2.00;;;1.70;;
45011;SDS011;63444;48.148;11.542;2023-04-25T03:18:02;4.00;;;2.30;;
45011;SDS011;63444;48.148;11.542;2023-04-25T03:20:28;3.33;;;2.30;;
45011;SDS011;63444;48.148;11.542;2023-04-25T03:22:53;2.90;;;2.03;;
45011;SDS011;63444;48.148;11.542;2023-04-25T03:25:19;2.57;;;1.97;;
45011;SDS011;63444;48.148;11.542;2023-04-25T03:27:45;5.13;;;2.10;;
45011;SDS011;63444;48.148;11.542;2023-04-25T03:30:10;2.37;;;1.73;;
45011;SDS011;63444;48.148;11.542;2023-04-25T03:32:36;2.37;;;1.80;;
45011;SDS011;63444;48.148;11.542;2023-04-25T03:35:02;2.37;;;1.97;;
45011;SDS011;63444;48.148;11.542;2023-04-25T03:37:28;2.87;;;1.90;;
45011;SDS011;63444;48.148;11.542;2023-04-25T03:39:54;3.47;;;2.30;;
45011;SDS011;63444;48.148;11.542;2023-04-25T03:42:19;3.43;;;2.23;;
45011;SDS011;63444;48.148;11.542;2023-04-25T03:44:47;3.27;;;2.60;;
45011;SDS011;63444;48.148;11.542;2023-04-25T03:47:13;2.30;;;2.10;;
45011;SDS011;63444;48.148;11.542;2023-04-25T03:49:39;3.03;;;1.80;;
45011;SDS011;63444;48.148;11.542;2023-04-25T03:52:04;3.33;;;1.90;;
45011;SDS011;63444;48.148;11.542;2023-04-25T03:54:30;2.73;;;1.80;;
45011;SDS011;63444;48.148;11.542;2023-04-25T03:56:56;3.43;;;1.90;;
45011;SDS011;63444;48.148;11.542;2023-04-25T03:59:21;2.47;;;1.77;;
45011;SDS011;63444;48.148;11.542;2023-04-25T04:01:47;4.80;;;1.87;;
45011;SDS011;63444;48.148;11.542;2023-04-25T04:04:12;2.67;;;1.80;;
45011;SDS011;63444;48.148;11.542;2023-04-25T04:06:38;3.63;;;2.03;;
45011;SDS011;63444;48.148;11.542;2023-04-25T04:09:04;2.67;;;1.90;;
45011;SDS011;63444;48.148;11.542;2023-04-25T04:11:33;2.97;;;1.60;;
45011;SDS011;63444;48.148;11.542;2023-04-25T04:14:01;2.77;;;2.00;;
45011;SDS011;63444;48.148;11.542;2023-04-25T04:16:27;3.43;;;1.90;;
45011;SDS011;63444;48.148;11.542;2023-04-25T04:18:52;2.17;;;1.67;;
45011;SDS011;63444;48.148;11.542;2023-04-25T04:21:18;1.77;;;1.67;;
45011;SDS011;63444;48.148;11.542;2023-04-25T04:23:44;2.77;;;1.70;;
45011;SDS011;63444;48.148;11.542;2023-04-25T04:26:09;5.33;;;1.80;;
45011;SDS011;63444;48.148;11.542;2023-04-25T04:28:36;3.00;;;1.70;;
45011;SDS011;63444;48.148;11.542;2023-04-25T04:31:02;1.80;;;1.53;;
45011;SDS011;63444;48.148;11.542;2023-04-25T04:33:28;2.23;;;1.60;;
45011;SDS011;63444;48.148;11.542;2023-04-25T04:35:55;3.93;;;1.73;;
45011;SDS011;63444;48.148;11.542;2023-04-25T04:38:21;4.20;;;2.00;;
45011;SDS011;63444;48.148;11.542;2023-04-25T04:40:47;4.57;;;1.77;;
45011;SDS011;63444;48.148;11.542;2023-04-25T04:43:13;5.60;;;1.90;;
45011;SDS011;63444;48.148;11.542;2023-04-25T04:45:42;4.20;;;1.97;;
45011;SDS011;63444;48.148;11.542;2023-04-25T04:48:08;3.60;;;1.70;;
45011;SDS011;63444;48.148;11.542;2023-04-25T04:50:33;1.80;;;1.70;;
45011;SDS011;63444;48.148;11.542;2023-04-25T04:53:00;3.33;;;1.87;;
45011;SDS011;63444;48.148;11.542;2023-04-25T04:55:26;4.53;;;2.23;;
45011;SDS011;63444;48.148;11.542;2023-04-25T04:57:52;3.47;;;1.83;;
45011;SDS011;63444;48.148;11.542;2023-04-25T05:00:17;4.67;;;2.50;;
45011;SDS011;63444;48.148;11.542;2023-04-25T05:02:43;2.57;;;1.90;;
45011;SDS011;63444;48.148;11.542;2023-04-25T05:05:09;2.50;;;1.97;;
45011;SDS011;63444;48.148;11.542;2023-04-25T05:07:35;4.83;;;2.00;;
45011;SDS011;63444;48.148;11.542;2023-04-25T05:10:01;5.20;;;2.20;;
45011;SDS011;63444;48.148;11.542;2023-04-25T05:12:27;4.03;;;2.13;;
45011;SDS011;63444;48.148;11.542;2023-04-25T05:14:52;5.20;;;2.37;;
45011;SDS011;63444;48.148;11.542;2023-04-25T05:17:18;3.70;;;2.30;;
45011;SDS011;63444;48.148;11.542;2023-04-25T05:19:44;4.80;;;2.37;;
45011;SDS011;63444;48.148;11.542;2023-04-25T05:22:09;3.00;;;2.10;;
45011;SDS011;63444;48.148;11.542;2023-04-25T05:24:35;4.03;;;2.57;;
45011;SDS011;63444;48.148;11.542;2023-04-25T05:27:00;6.73;;;2.60;;
45011;SDS011;63444;48.148;11.542;2023-04-25T05:29:26;2.97;;;2.23;;
45011;SDS011;63444;48.148;11.542;2023-04-25T05:31:52;5.73;;;2.70;;
45011;SDS011;63444;48.148;11.542;2023-04-25T05:34:17;4.70;;;2.57;;
45011;SDS011;63444;48.148;11.542;2023-04-25T05:36:43;5.00;;;2.60;;
45011;SDS011;63444;48.148;11.542;2023-04-25T05:39:09;4.03;;;2.20;;
45011;SDS011;63444;48.148;11.542;2023-04-25T05:41:35;3.07;;;2.30;;
45011;SDS011;63444;48.148;11.542;2023-04-25T05:44:01;6.77;;;2.50;;
45011;SDS011;63444;48.148;11.542;2023-04-25T05:46:27;4.53;;;2.50;;
45011;SDS011;63444;48.148;11.542;2023-04-25T05:48:52;5.50;;;2.30;;
45011;SDS011;63444;48.148;11.542;2023-04-25T05:51:18;4.43;;;2.20;;
45011;SDS011;63444;48.148;11.542;2023-04-25T05:53:44;3.30;;;2.10;;
45011;SDS011;63444;48.148;11.542;2023-04-25T05:56:10;2.70;;;2.20;;
45011;SDS011;63444;48.148;11.542;2023-04-25T05:58:35;3.77;;;2.10;;
45011;SDS011;63444;48.148;11.542;2023-04-25T06:01:01;2.87;;;2.20;;
45011;SDS011;63444;48.148;11.542;2023-04-25T06:03:27;6.53;;;2.37;;
45011;SDS011;63444;48.148;11.542;2023-04-25T06:05:53;2.40;;;2.20;;
45011;SDS011;63444;48.148;11.542;2023-04-25T06:08:19;5.37;;;2.20;;
45011;SDS011;63444;48.148;11.542;2023-04-25T06:10:44;4.40;;;2.33;;
45011;SDS011;63444;48.148;11.542;2023-04-25T06:13:10;4.10;;;2.03;;
45011;SDS011;63444;48.148;11.542;2023-04-25T06:15:36;3.73;;;2.00;;
45011;SDS011;63444;48.148;11.542;2023-04-25T06:18:01;4.63;;;2.40;;
45011;SDS011;63444;48.148;11.542;2023-04-25T06:20:27;4.23;;;2.37;;
45011;SDS011;63444;48.148;11.542;2023-04-25T06:22:53;3.47;;;2.00;;
45011;SDS011;63444;48.148;11.542;2023-04-25T06:25:18;2.20;;;1.93;;
45011;SDS011;63444;48.148;11.542;2023-04-25T06:27:45;2.63;;;2.13;;
45011;SDS011;63444;48.148;11.542;2023-04-25T06:30:11;3.67;;;2.57;;
45011;SDS011;63444;48.148;11.542;2023-04-25T06:32:37;4.13;;;2.67;;
45011;SDS011;63444;48.148;11.542;2023-04-25T06:35:03;3.50;;;2.40;;
45011;SDS011;63444;48.148;11.542;2023-04-25T06:37:30;5.20;;;2.80;;
45011;SDS011;63444;48.148;11.542;2023-04-25T06:39:56;5.47;;;2.70;;
45011;SDS011;63444;48.148;11.542;2023-04-25T06:42:21;2.60;;;2.40;;
45011;SDS011;63444;48.148;11.542;2023-04-25T06:44:47;3.37;;;2.60;;
45011;SDS011;63444;48.148;11.542;2023-04-25T06:47:12;3.30;;;2.30;;
45011;SDS011;63444;48.148;11.542;2023-04-25T06:49:38;4.20;;;2.93;;
45011;SDS011;63444;48.148;11.542;2023-04-25T06:52:04;4.17;;;2.60;;
45011;SDS011;63444;48.148;11.542;2023-04-25T06:54:29;5.70;;;3.00;;
45011;SDS011;63444;48.148;11.542;2023-04-25T06:56:55;7.87;;;2.73;;
45011;SDS011;63444;48.148;11.542;2023-04-25T06:59:21;4.63;;;2.93;;
45011;SDS011;63444;48.148;11.542;2023-04-25T07:01:47;3.53;;;2.40;;
45011;SDS011;63444;48.148;11.542;2023-04-25T07:04:13;3.90;;;2.50;;
45011;SDS011;63444;48.148;11.542;2023-04-25T07:06:38;2.93;;;2.63;;
45011;SDS011;63444;48.148;11.542;2023-04-25T07:09:07;4.10;;;2.87;;
45011;SDS011;63444;48.148;11.542;2023-04-25T07:11:35;3.20;;;2.57;;
45011;SDS011;63444;48.148;11.542;2023-04-25T07:14:01;2.47;;;2.27;;
45011;SDS011;63444;48.148;11.542;2023-04-25T07:16:27;2.73;;;2.10;;
45011;SDS011;63444;48.148;11.542;2023-04-25T07:18:52;3.77;;;2.37;;
45011;SDS011;63444;48.148;11.542;2023-04-25T07:21:18;3.23;;;2.50;;
45011;SDS011;63444;48.148;11.542;2023-04-25T07:23:44;2.73;;;2.23;;
45011;SDS011;63444;48.148;11.542;2023-04-25T07:26:09;2.70;;;2.10;;
45011;SDS011;63444;48.148;11.542;2023-04-25T07:28:35;3.93;;;2.20;;
45011;SDS011;63444;48.148;11.542;2023-04-25T07:31:01;4.17;;;2.43;;
45011;SDS011;63444;48.148;11.542;2023-04-25T07:33:27;4.43;;;2.40;;
45011;SDS011;63444;48.148;11.542;2023-04-25T07:35:53;2.83;;;2.17;;
45011;SDS011;63444;48.148;11.542;2023-04-25T07:38:18;2.97;;;2.10;;
45011;SDS011;63444;48.148;11.542;2023-04-25T07:40:44;4.90;;;2.27;;
45011;SDS011;63444;48.148;11.542;2023-04-25T07:43:10;3.93;;;2.20;;
45011;SDS011;63444;48.148;11.542;2023-04-25T07:45:39;3.83;;;2.47;;
45011;SDS011;63444;48.148;11.542;2023-04-25T07:48:04;4.40;;;2.70;;
45011;SDS011;63444;48.148;11.542;2023-04-25T07:50:30;2.47;;;2.00;;
45011;SDS011;63444;48.148;11.542;2023-04-25T07:52:56;3.13;;;2.30;;
45011;SDS011;63444;48.148;11.542;2023-04-25T07:55:21;6.03;;;2.50;;
45011;SDS011;63444;48.148;11.542;2023-04-25T07:57:47;4.93;;;2.50;;
45011;SDS011;63444;48.148;11.542;2023-04-25T08:00:13;5.07;;;3.47;;
45011;SDS011;63444;48.148;11.542;2023-04-25T08:02:39;3.00;;;2.50;;
45011;SDS011;63444;48.148;11.542;2023-04-25T08:05:05;4.37;;;2.90;;
45011;SDS011;63444;48.148;11.542;2023-04-25T08:07:33;5.00;;;2.50;;
45011;SDS011;63444;48.148;11.542;2023-04-25T08:09:59;3.10;;;2.60;;
45011;SDS011;63444;48.148;11.542;2023-04-25T08:12:24;3.07;;;2.33;;
45011;SDS011;63444;48.148;11.542;2023-04-25T08:14:50;6.90;;;2.60;;
45011;SDS011;63444;48.148;11.542;2023-04-25T08:17:16;5.43;;;2.70;;
45011;SDS011;63444;48.148;11.542;2023-04-25T08:19:41;4.27;;;2.40;;
45011;SDS011;63444;48.148;11.542;2023-04-25T08:22:07;5.10;;;2.50;;
45011;SDS011;63444;48.148;11.542;2023-04-25T08:24:33;3.03;;;2.20;;
45011;SDS011;63444;48.148;11.542;2023-04-25T08:26:58;5.27;;;2.43;;
45011;SDS011;63444;48.148;11.542;2023-04-25T08:29:24;2.87;;;2.13;;
45011;SDS011;63444;48.148;11.542;2023-04-25T08:31:50;4.50;;;2.40;;
45011;SDS011;63444;48.148;11.542;2023-04-25T08:34:17;3.43;;;2.20;;
45011;SDS011;63444;48.148;11.542;2023-04-25T08:36:45;4.87;;;2.20;;
45011;SDS011;63444;48.148;11.542;2023-04-25T08:39:10;4.10;;;2.00;;
45011;SDS011;63444;48.148;11.542;2023-04-25T08:41:36;3.60;;;1.90;;
45011;SDS011;63444;48.148;11.542;2023-04-25T08:44:02;3.80;;;1.90;;
45011;SDS011;63444;48.148;11.542;2023-04-25T08:46:30;2.37;;;1.60;;
45011;SDS011;63444;48.148;11.542;2023-04-25T08:49:00;2.40;;;1.47;;
45011;SDS011;63444;48.148;11.542;2023-04-25T08:51:27;2.77;;;1.47;;
45011;SDS011;63444;48.148;11.542;2023-04-25T08:53:57;3.00;;;1.60;;
45011;SDS011;63444;48.148;11.542;2023-04-25T08:56:37;3.20;;;1.60;;
45011;SDS011;63444;48.148;11.542;2023-04-25T08:59:04;2.10;;;1.90;;
45011;SDS011;63444;48.148;11.542;2023-04-25T09:01:32;1.77;;;1.40;;
45011;SDS011;63444;48.148;11.542;2023-04-25T09:04:01;3.37;;;1.63;;
45011;SDS011;63444;48.148;11.542;2023-04-25T09:06:30;3.13;;;1.80;;
45011;SDS011;63444;48.148;11.542;2023-04-25T09:09:06;2.03;;;1.40;;
45011;SDS011;63444;48.148;11.542;2023-04-25T09:11:34;2.10;;;1.40;;
45011;SDS011;63444;48.148;11.542;2023-04-25T09:14:36;3.43;;;1.43;;
45011;SDS011;63444;48.148;11.542;2023-04-25T09:19:21;3.53;;;1.80;;
45011;SDS011;63444;48.148;11.542;2023-04-25T09:21:48;2.53;;;1.50;;
45011;SDS011;63444;48.148;11.542;2023-04-25T09:24:14;2.90;;;1.60;;
45011;SDS011;63444;48.148;11.542;2023-04-25T09:26:40;1.27;;;1.17;;
45011;SDS011;63444;48.148;11.542;2023-04-25T09:29:06;2.63;;;1.80;;
45011;SDS011;63444;48.148;11.542;2023-04-25T09:31:32;1.70;;;1.60;;
45011;SDS011;63444;48.148;11.542;2023-04-25T09:33:59;2.87;;;1.37;;
45011;SDS011;63444;48.148;11.542;2023-04-25T09:36:29;1.73;;;1.23;;
45011;SDS011;63444;48.148;11.542;2023-04-25T09:38:55;1.93;;;1.50;;
45011;SDS011;63444;48.148;11.542;2023-04-25T09:41:24;1.77;;;1.40;;
45011;SDS011;63444;48.148;11.542;2023-04-25T09:43:50;3.90;;;1.67;;
45011;SDS011;63444;48.148;11.542;2023-04-25T09:46:15;1.83;;;1.30;;
45011;SDS011;63444;48.148;11.542;2023-04-25T09:48:47;4.10;;;1.77;;
45011;SDS011;63444;48.148;11.542;2023-04-25T09:51:15;2.37;;;1.70;;
45011;SDS011;63444;48.148;11.542;2023-04-25T09:53:42;2.67;;;1.60;;
45011;SDS011;63444;48.148;11.542;2023-04-25T09:56:11;2.30;;;1.80;;
45011;SDS011;63444;48.148;11.542;2023-04-25T09:58:39;2.43;;;1.30;;
45011;SDS011;63444;48.148;11.542;2023-04-25T10:01:06;3.83;;;1.60;;
45011;SDS011;63444;48.148;11.542;2023-04-25T10:03:33;2.33;;;1.70;;
45011;SDS011;63444;48.148;11.542;2023-04-25T10:06:00;2.83;;;1.63;;
45011;SDS011;63444;48.148;11.542;2023-04-25T10:08:36;4.07;;;1.57;;
45011;SDS011;63444;48.148;11.542;2023-04-25T10:11:03;3.07;;;1.97;;
45011;SDS011;63444;48.148;11.542;2023-04-25T10:13:30;1.90;;;1.60;;
45011;SDS011;63444;48.148;11.542;2023-04-25T10:15:57;3.77;;;1.53;;
45011;SDS011;63444;48.148;11.542;2023-04-25T10:18:24;1.77;;;1.50;;
45011;SDS011;63444;48.148;11.542;2023-04-25T10:20:52;1.57;;;1.47;;
45011;SDS011;63444;48.148;11.542;2023-04-25T10:23:19;2.73;;;1.40;;
45011;SDS011;63444;48.148;11.542;2023-04-25T10:25:45;1.60;;;1.40;;
45011;SDS011;63444;48.148;11.542;2023-04-25T10:28:11;2.00;;;1.30;;
45011;SDS011;63444;48.148;11.542;2023-04-25T10:30:38;2.17;;;1.23;;
45011;SDS011;63444;48.148;11.542;2023-04-25T10:33:31;2.83;;;1.60;;
45011;SDS011;63444;48.148;11.542;2023-04-25T10:36:11;2.27;;;1.50;;
45011;SDS011;63444;48.148;11.542;2023-04-25T10:38:38;3.33;;;1.60;;
45011;SDS011;63444;48.148;11.542;2023-04-25T10:41:05;1.63;;;1.30;;
45011;SDS011;63444;48.148;11.542;2023-04-25T10:43:43;2.20;;;1.20;;
45011;SDS011;63444;48.148;11.542;2023-04-25T10:46:13;1.00;;;1.00;;
45011;SDS011;63444;48.148;11.542;2023-04-25T10:48:46;1.40;;;1.20;;
45011;SDS011;63444;48.148;11.542;2023-04-25T10:51:16;1.30;;;1.20;;
45011;SDS011;63444;48.148;11.542;2023-04-25T10:53:44;2.20;;;1.20;;
45011;SDS011;63444;48.148;11.542;2023-04-25T10:56:17;1.90;;;1.33;;
45011;SDS011;63444;48.148;11.542;2023-04-25T10:58:45;4.13;;;1.77;;
45011;SDS011;63444;48.148;11.542;2023-04-25T11:01:15;3.30;;;1.67;;
45011;SDS011;63444;48.148;11.542;2023-04-25T11:03:45;1.83;;;1.50;;
45011;SDS011;63444;48.148;11.542;2023-04-25T11:06:35;3.83;;;1.50;;
45011;SDS011;63444;48.148;11.542;2023-04-25T11:09:02;3.17;;;1.30;;
45011;SDS011;63444;48.148;11.542;2023-04-25T11:11:33;1.20;;;1.10;;
45011;SDS011;63444;48.148;11.542;2023-04-25T11:14:01;1.63;;;1.10;;
45011;SDS011;63444;48.148;11.542;2023-04-25T11:16:27;1.10;;;1.10;;
45011;SDS011;63444;48.148;11.542;2023-04-25T11:18:53;0.97;;;0.90;;
45011;SDS011;63444;48.148;11.542;2023-04-25T11:21:21;1.87;;;1.03;;
45011;SDS011;63444;48.148;11.542;2023-04-25T11:23:49;1.23;;;1.13;;
45011;SDS011;63444;48.148;11.542;2023-04-25T11:26:15;1.23;;;1.10;;
45011;SDS011;63444;48.148;11.542;2023-04-25T11:28:44;1.90;;;1.13;;
45011;SDS011;63444;48.148;11.542;2023-04-25T11:31:10;1.37;;;1.10;;
45011;SDS011;63444;48.148;11.542;2023-04-25T11:33:35;1.70;;;1.27;;
45011;SDS011;63444;48.148;11.542;2023-04-25T11:36:01;1.60;;;1.20;;
45011;SDS011;63444;48.148;11.542;2023-04-25T11:38:27;3.63;;;1.50;;
45011;SDS011;63444;48.148;11.542;2023-04-25T11:40:53;2.13;;;1.10;;
45011;SDS011;63444;48.148;11.542;2023-04-25T11:43:22;2.10;;;1.40;;
45011;SDS011;63444;48.148;11.542;2023-04-25T11:45:48;1.50;;;1.27;;
45011;SDS011;63444;48.148;11.542;2023-04-25T11:48:16;1.87;;;1.40;;
45011;SDS011;63444;48.148;11.542;2023-04-25T11:50:42;3.57;;;1.73;;
45011;SDS011;63444;48.148;11.542;2023-04-25T11:53:07;1.77;;;1.63;;
45011;SDS011;63444;48.148;11.542;2023-04-25T11:55:33;1.53;;;1.43;;
45011;SDS011;63444;48.148;11.542;2023-04-25T11:58:00;1.53;;;1.30;;
45011;SDS011;63444;48.148;11.542;2023-04-25T12:00:27;2.90;;;1.33;;
45011;SDS011;63444;48.148;11.542;2023-04-25T12:02:53;1.77;;;1.20;;
45011;SDS011;63444;48.148;11.542;2023-04-25T12:05:23;1.33;;;1.20;;
45011;SDS011;63444;48.148;11.542;2023-04-25T12:07:50;2.03;;;1.13;;
45011;SDS011;63444;48.148;11.542;2023-04-25T12:10:16;1.47;;;1.33;;
45011;SDS011;63444;48.148;11.542;2023-04-25T12:12:43;1.77;;;1.23;;
45011;SDS011;63444;48.148;11.542;2023-04-25T12:15:14;1.27;;;1.00;;
45011;SDS011;63444;48.148;11.542;2023-04-25T12:17:44;1.20;;;1.10;;
45011;SDS011;63444;48.148;11.542;2023-04-25T12:20:15;3.90;;;1.03;;
45011;SDS011;63444;48.148;11.542;2023-04-25T12:22:42;0.97;;;0.97;;
45011;SDS011;63444;48.148;11.542;2023-04-25T12:25:12;1.30;;;1.13;;
45011;SDS011;63444;48.148;11.542;2023-04-25T12:33:30;1.20;;;1.10;;
45011;SDS011;63444;48.148;11.542;2023-04-25T12:36:00;1.70;;;1.17;;
45011;SDS011;63444;48.148;11.542;2023-04-25T12:38:35;2.37;;;1.20;;
45011;SDS011;63444;48.148;11.542;2023-04-25T12:41:05;1.40;;;1.30;;
45011;SDS011;63444;48.148;11.542;2023-04-25T12:43:31;2.47;;;1.10;;
45011;SDS011;63444;48.148;11.542;2023-04-25T12:45:57;2.10;;;1.00;;
45011;SDS011;63444;48.148;11.542;2023-04-25T12:48:23;2.00;;;1.40;;
45011;SDS011;63444;48.148;11.542;2023-04-25T12:50:49;1.30;;;1.20;;
45011;SDS011;63444;48.148;11.542;2023-04-25T12:53:16;1.37;;;1.27;;
45011;SDS011;63444;48.148;11.542;2023-04-25T12:55:42;2.50;;;1.53;;
45011;SDS011;63444;48.148;11.542;2023-04-25T12:58:08;1.33;;;1.10;;
45011;SDS011;63444;48.148;11.542;2023-04-25T13:00:34;1.73;;;1.20;;
45011;SDS011;63444;48.148;11.542;2023-04-25T13:02:59;1.63;;;1.20;;
45011;SDS011;63444;48.148;11.542;2023-04-25T13:05:25;1.10;;;1.10;;
45011;SDS011;63444;48.148;11.542;2023-04-25T13:07:51;1.00;;;1.00;;
45011;SDS011;63444;48.148;11.542;2023-04-25T13:10:17;1.00;;;1.00;;
45011;SDS011;63444;48.148;11.542;2023-04-25T13:12:43;2.07;;;1.10;;
45011;SDS011;63444;48.148;11.542;2023-04-25T13:15:09;1.30;;;1.00;;
45011;SDS011;63444;48.148;11.542;2023-04-25T13:17:36;1.77;;;0.90;;
45011;SDS011;63444;48.148;11.542;2023-04-25T13:20:03;1.93;;;1.10;;
45011;SDS011;63444;48.148;11.542;2023-04-25T13:22:33;1.40;;;1.30;;
45011;SDS011;63444;48.148;11.542;2023-04-25T13:25:02;2.23;;;1.00;;
45011;SDS011;63444;48.148;11.542;2023-04-25T13:27:28;1.03;;;1.00;;
45011;SDS011;63444;48.148;11.542;2023-04-25T13:29:53;1.57;;;1.40;;
45011;SDS011;63444;48.148;11.542;2023-04-25T13:32:19;1.87;;;1.50;;
45011;SDS011;63444;48.148;11.542;2023-04-25T13:34:45;1.30;;;1.20;;
45011;SDS011;63444;48.148;11.542;2023-04-25T13:37:10;1.70;;;1.60;;
45011;SDS011;63444;48.148;11.542;2023-04-25T13:39:36;1.70;;;1.23;;
45011;SDS011;63444;48.148;11.542;2023-04-25T13:42:02;1.00;;;1.00;;
45011;SDS011;63444;48.148;11.542;2023-04-25T13:44:28;2.10;;;1.00;;
45011;SDS011;63444;48.148;11.542;2023-04-25T13:46:53;1.93;;;1.30;;
45011;SDS011;63444;48.148;11.542;2023-04-25T13:49:19;4.33;;;1.50;;
45011;SDS011;63444;48.148;11.542;2023-04-25T13:51:45;2.23;;;1.30;;
45011;SDS011;63444;48.148;11.542;2023-04-25T13:54:10;1.20;;;1.10;;
45011;SDS011;63444;48.148;11.542;2023-04-25T13:56:36;1.37;;;1.00;;
45011;SDS011;63444;48.148;11.542;2023-04-25T13:59:02;1.10;;;1.00;;
45011;SDS011;63444;48.148;11.542;2023-04-25T14:01:27;2.83;;;1.00;;
45011;SDS011;63444;48.148;11.542;2023-04-25T14:03:55;1.20;;;1.10;;
45011;SDS011;63444;48.148;11.542;2023-04-25T14:06:21;1.17;;;1.10;;
45011;SDS011;63444;48.148;11.542;2023-04-25T14:08:49;1.30;;;1.20;;
45011;SDS011;63444;48.148;11.542;2023-04-25T14:11:15;1.23;;;1.10;;
45011;SDS011;63444;48.148;11.542;2023-04-25T14:13:43;2.50;;;1.27;;
45011;SDS011;63444;48.148;11.542;2023-04-25T14:16:09;1.53;;;1.27;;
45011;SDS011;63444;48.148;11.542;2023-04-25T14:18:35;1.87;;;1.10;;
45011;SDS011;63444;48.148;11.542;2023-04-25T14:21:00;3.50;;;1.27;;
45011;SDS011;63444;48.148;11.542;2023-04-25T14:23:26;1.30;;;1.20;;
45011;SDS011;63444;48.148;11.542;2023-04-25T14:25:52;1.33;;;1.23;;
45011;SDS011;63444;48.148;11.542;2023-04-25T14:28:18;1.07;;;1.00;;
45011;SDS011;63444;48.148;11.542;2023-04-25T14:30:45;1.07;;;1.07;;
45011;SDS011;63444;48.148;11.542;2023-04-25T14:33:11;2.97;;;1.10;;
45011;SDS011;63444;48.148;11.542;2023-04-25T14:35:39;2.93;;;1.00;;
45011;SDS011;63444;48.148;11.542;2023-04-25T14:38:06;1.20;;;1.10;;